Weather History for Visalia, CA

Change the Weather History Date:

Monday, April 8, 2013

  Actual Average Record
Temperature  
Mean Temperature 54 °F -  
Max Temperature 60 °F 71 °F 92 °F (1977)
Min Temperature 48 °F 46 °F 33 °F (2001)
Degree Days  
Heating Degree Days 11    
Growing Degree Days 4 (Base 50)    
Moisture  
Dew Point 41 °F    
Average Humidity 60    
Maximum Humidity 82    
Minimum Humidity 45    
Precipitation  
Precipitation 0.06 in - - ()
Sea Level Pressure  
Sea Level Pressure 29.84 in    
Wind  
Wind Speed 12 mph (North)    
Max Wind Speed 18 mph    
Max Gust Speed 28 mph    
Visibility 10 miles    
Events      
Averages and records for this station are not official NWS values.
T = Trace of Precipitation, MM = Missing Value Source: NWS Daily Summary

Daily Weather History Graph

Daily Weather History Graph

Search for Another Location

Airport:

Trip Planner

Search our weather history database for the weather conditions in past years. The results will help you decide how hot, cold, wet, or windy it might be!

Date:

Astronomy

Apr. 08, 2013 Rise Set
Actual Time 6:33 AM PDT 7:25 PM PDT
Civil Twilight 6:07 AM PDT 7:52 PM PDT
Nautical Twilight 5:36 AM PDT 8:23 PM PDT
Astronomical Twilight 5:04 AM PDT 8:55 PM PDT
Moon 5:23 AM PDT (4/8) 6:06 PM PDT (4/8)
Length of Visible Light 13h 45m
Length of Day
12h 52m
Waning Crescent, 3% of the Moon is Illuminated
Apr 8
Waning Crescent
Apr 10
New
Apr 18
First Quarter
Apr 25
Full
May 2
Last Quarter

Hourly Weather History & Observations

Time (PDT) Temp. Dew Point Humidity Pressure Visibility Wind Dir Wind Speed Gust Speed Precip Events Conditions
12:15 AM 59.0 °F 41.0 °F 51% 29.86 in 10.0 mi NNW 18.4 mph 27.6 mph N/A   Scattered Clouds
12:35 AM 57.2 °F 42.8 °F 59% 29.86 in 10.0 mi NNW 18.4 mph 25.3 mph N/A   Mostly Cloudy
12:55 AM 57.2 °F 42.8 °F 59% 29.86 in 10.0 mi NNW 17.3 mph 20.7 mph N/A   Overcast
1:15 AM 57.2 °F 42.8 °F 59% 29.86 in 10.0 mi NNW 13.8 mph 19.6 mph N/A   Overcast
1:35 AM 57.2 °F 42.8 °F 59% 29.84 in 10.0 mi NNW 13.8 mph - N/A   Overcast
1:55 AM 55.4 °F 41.0 °F 58% 29.82 in 10.0 mi NNW 12.7 mph - N/A   Mostly Cloudy
2:15 AM 55.4 °F 41.0 °F 58% 29.81 in 10.0 mi North 9.2 mph - N/A   Partly Cloudy
2:35 AM 53.6 °F 42.8 °F 67% 29.80 in 10.0 mi NNW 5.8 mph - N/A   Scattered Clouds
2:55 AM 53.6 °F 42.8 °F 67% 29.80 in 10.0 mi NNW 6.9 mph - N/A   Overcast
3:15 AM 53.6 °F 42.8 °F 67% 29.79 in 10.0 mi NNW 6.9 mph - N/A   Overcast
3:35 AM 53.6 °F 42.8 °F 67% 29.78 in 10.0 mi NNW 8.1 mph - N/A   Mostly Cloudy
3:55 AM 53.6 °F 42.8 °F 67% 29.77 in 10.0 mi North 8.1 mph - N/A   Overcast
4:15 AM 53.6 °F 42.8 °F 67% 29.76 in 10.0 mi North 8.1 mph - N/A   Scattered Clouds
4:35 AM 53.6 °F 42.8 °F 67% 29.76 in 10.0 mi NW 9.2 mph - N/A   Partly Cloudy
5:15 AM 51.8 °F 39.2 °F 62% 29.77 in 10.0 mi WNW 11.5 mph - N/A   Mostly Cloudy
5:35 AM 50.0 °F 35.6 °F 58% 29.77 in 10.0 mi WNW 18.4 mph 21.9 mph N/A   Partly Cloudy
5:55 AM 50.0 °F 35.6 °F 58% 29.78 in 10.0 mi NW 18.4 mph 24.2 mph N/A   Clear
6:15 AM 50.0 °F 35.6 °F 58% 29.79 in 10.0 mi NW 17.3 mph 24.2 mph N/A   Partly Cloudy
6:35 AM 50.0 °F 35.6 °F 58% 29.79 in 10.0 mi NW 17.3 mph - N/A   Mostly Cloudy
6:55 AM 50.0 °F 35.6 °F 58% 29.80 in 10.0 mi NW 17.3 mph 23.0 mph N/A   Mostly Cloudy
7:15 AM 50.0 °F 37.4 °F 62% 29.81 in 10.0 mi NW 17.3 mph - N/A   Mostly Cloudy
7:35 AM 51.8 °F 37.4 °F 58% 29.83 in 10.0 mi NW 18.4 mph 23.0 mph N/A   Overcast
7:55 AM 50.0 °F 37.4 °F 62% 29.84 in 10.0 mi NW 16.1 mph - N/A   Overcast
8:15 AM 50.0 °F 37.4 °F 62% 29.84 in 10.0 mi NW 13.8 mph - N/A   Overcast
8:35 AM 51.8 °F 39.2 °F 62% 29.85 in 10.0 mi NW 16.1 mph - N/A   Overcast
8:55 AM 51.8 °F 39.2 °F 62% 29.86 in 10.0 mi WNW 12.7 mph 19.6 mph N/A   Mostly Cloudy
9:15 AM 51.8 °F 39.2 °F 62% 29.87 in 10.0 mi NW 16.1 mph - N/A   Mostly Cloudy
9:35 AM 51.8 °F 39.2 °F 62% 29.86 in 10.0 mi WNW 11.5 mph - N/A   Overcast
9:55 AM 50.0 °F 41.0 °F 71% 29.87 in 6.0 mi NW 13.8 mph - N/A   Overcast
10:15 AM 48.2 °F 42.8 °F 82% 29.87 in 4.0 mi WNW 10.4 mph - 0.02 in   Mostly Cloudy
10:35 AM 50.0 °F 44.6 °F 82% 29.87 in 5.0 mi WNW 11.5 mph - 0.02 in   Overcast
10:55 AM 51.8 °F 44.6 °F 76% 29.87 in 2.5 mi WNW 13.8 mph - 0.02 in   Mostly Cloudy
11:15 AM 50.0 °F 44.6 °F 82% 29.88 in 2.5 mi NNW 13.8 mph 18.4 mph 0.02 in   Mostly Cloudy
11:35 AM 51.8 °F 46.4 °F 82% 29.87 in 9.0 mi NNW 11.5 mph - 0.04 in   Overcast
11:55 AM 53.6 °F 46.4 °F 77% 29.86 in 10.0 mi NNW 11.5 mph - 0.04 in   Mostly Cloudy
12:15 PM 55.4 °F 46.4 °F 72% 29.86 in 10.0 mi NNW 10.4 mph - N/A   Mostly Cloudy
12:35 PM 55.4 °F 44.6 °F 67% 29.86 in 10.0 mi NW 13.8 mph 17.3 mph N/A   Overcast
12:55 PM 55.4 °F 42.8 °F 63% 29.86 in 10.0 mi North 9.2 mph - N/A   Overcast
1:15 PM 55.4 °F 42.8 °F 63% 29.86 in 10.0 mi NNW 8.1 mph - N/A   Overcast
1:35 PM 57.2 °F 41.0 °F 55% 29.85 in 10.0 mi North 9.2 mph - N/A   Overcast
1:55 PM 57.2 °F 42.8 °F 59% 29.84 in 10.0 mi North 9.2 mph - N/A   Mostly Cloudy
2:15 PM 57.2 °F 41.0 °F 55% 29.84 in 10.0 mi North 6.9 mph - N/A   Overcast
2:35 PM 59.0 °F 42.8 °F 55% 29.84 in 10.0 mi ENE 6.9 mph - N/A   Mostly Cloudy
2:55 PM 59.0 °F 42.8 °F 55% 29.84 in 10.0 mi NE 6.9 mph - N/A   Mostly Cloudy
3:15 PM 60.8 °F 42.8 °F 52% 29.83 in 10.0 mi NE 5.8 mph - N/A   Overcast
3:35 PM 60.8 °F 41.0 °F 48% 29.83 in 10.0 mi North 8.1 mph - N/A   Overcast
3:55 PM 60.8 °F 39.2 °F 45% 29.82 in 10.0 mi NNE 8.1 mph - N/A   Overcast
4:15 PM 60.8 °F 39.2 °F 45% 29.82 in 10.0 mi NNE 4.6 mph - N/A   Overcast
4:35 PM 60.8 °F 39.2 °F 45% 29.82 in 10.0 mi NNE 3.5 mph - N/A   Overcast
4:55 PM 60.8 °F 41.0 °F 48% 29.81 in 10.0 mi East 8.1 mph - N/A   Overcast
5:15 PM 60.8 °F 39.2 °F 45% 29.81 in 10.0 mi Calm Calm - N/A   Mostly Cloudy
5:35 PM 60.8 °F 41.0 °F 48% 29.82 in 10.0 mi SE 8.1 mph - N/A   Overcast
5:55 PM 60.8 °F 41.0 °F 48% 29.83 in 10.0 mi ENE 5.8 mph - N/A   Overcast
6:15 PM 60.8 °F 41.0 °F 48% 29.83 in 10.0 mi East 6.9 mph - N/A   Overcast
6:35 PM 60.8 °F 41.0 °F 48% 29.84 in 10.0 mi ESE 3.5 mph - N/A   Overcast
6:55 PM 60.8 °F 41.0 °F 48% 29.84 in 10.0 mi SE 8.1 mph - N/A   Overcast
7:15 PM 59.0 °F 41.0 °F 51% 29.84 in 10.0 mi SE 4.6 mph - N/A   Overcast
7:35 PM 57.2 °F 41.0 °F 55% 29.85 in 10.0 mi East 8.1 mph - N/A   Overcast
7:55 PM 55.4 °F 39.2 °F 54% 29.85 in 10.0 mi SE 4.6 mph - N/A   Scattered Clouds
8:15 PM 55.4 °F 39.2 °F 54% 29.85 in 10.0 mi SSE 6.9 mph - N/A   Partly Cloudy
8:35 PM 53.6 °F 41.0 °F 62% 29.86 in 10.0 mi South 5.8 mph - N/A   Clear
8:55 PM 53.6 °F 41.0 °F 62% 29.86 in 10.0 mi South 5.8 mph - N/A   Clear
9:15 PM 51.8 °F 39.2 °F 62% 29.86 in 10.0 mi South 6.9 mph - N/A   Clear
9:35 PM 50.0 °F 39.2 °F 66% 29.86 in 10.0 mi SE 8.1 mph - N/A   Clear
9:55 PM 51.8 °F 41.0 °F 67% 29.87 in 10.0 mi NNE 4.6 mph - N/A   Clear
10:15 PM 51.8 °F 39.2 °F 62% 29.87 in 10.0 mi SSE 4.6 mph - N/A   Clear
10:35 PM 53.6 °F 39.2 °F 58% 29.88 in 10.0 mi ENE 4.6 mph - N/A   Clear
10:55 PM 51.8 °F 39.2 °F 62% 29.88 in 10.0 mi East 5.8 mph - N/A   Clear
11:15 PM 51.8 °F 39.2 °F 62% 29.87 in 10.0 mi East 3.5 mph - N/A   Clear
11:35 PM 50.0 °F 39.2 °F 66% 29.87 in 10.0 mi Calm Calm - N/A   Clear
11:55 PM 48.2 °F 37.4 °F 66% 29.88 in 10.0 mi ESE 3.5 mph - N/A   Clear